createdAt,value
2018-06-16T00:00:11.249Z,0
2018-06-16T00:01:12.637Z,0
2018-06-16T00:02:14.026Z,0
2018-06-16T00:03:15.413Z,0
2018-06-16T00:04:16.800Z,0
2018-06-16T00:05:18.197Z,0
2018-06-16T00:06:19.584Z,0
2018-06-16T00:07:20.978Z,0
2018-06-16T00:08:22.365Z,0
2018-06-16T00:09:23.746Z,0
2018-06-16T00:10:25.141Z,0
2018-06-16T00:11:26.532Z,0
2018-06-16T00:12:27.906Z,0
2018-06-16T00:13:29.301Z,0
2018-06-16T00:14:30.679Z,0
2018-06-16T00:15:32.060Z,0
2018-06-16T00:16:33.460Z,0
2018-06-16T00:17:34.858Z,0
2018-06-16T00:18:36.247Z,0
2018-06-16T00:19:37.640Z,0
2018-06-16T00:20:39.019Z,0
2018-06-16T00:21:40.405Z,0
2018-06-16T00:22:41.792Z,0
2018-06-16T00:23:43.172Z,0
2018-06-16T00:24:44.557Z,0
2018-06-16T00:25:45.941Z,0
2018-06-16T00:26:47.331Z,0
2018-06-16T00:27:48.718Z,0
2018-06-16T00:28:50.102Z,0
2018-06-16T00:29:51.489Z,0
2018-06-16T00:30:52.879Z,0
2018-06-16T00:31:54.260Z,0
2018-06-16T00:32:55.645Z,0
2018-06-16T00:33:57.039Z,0
2018-06-16T00:34:58.417Z,0
2018-06-16T00:35:59.799Z,0
2018-06-16T00:37:01.191Z,0
2018-06-16T00:38:02.577Z,0
2018-06-16T00:39:03.968Z,0
2018-06-16T00:40:05.351Z,0
2018-06-16T00:41:06.732Z,0
2018-06-16T00:42:08.115Z,0
2018-06-16T00:43:09.513Z,0
2018-06-16T00:44:10.897Z,0
2018-06-16T00:45:12.288Z,0
2018-06-16T00:46:13.670Z,0
2018-06-16T00:47:15.063Z,0
2018-06-16T00:48:16.450Z,0
2018-06-16T00:49:17.832Z,0
2018-06-16T00:50:19.224Z,0
2018-06-16T00:51:20.612Z,0
2018-06-16T00:52:22.009Z,0
2018-06-16T00:53:23.389Z,0
2018-06-16T00:54:24.783Z,0
2018-06-16T00:55:26.164Z,0
2018-06-16T00:56:27.555Z,0
2018-06-16T00:57:28.945Z,0
2018-06-16T00:58:30.339Z,0
2018-06-16T00:59:31.723Z,0
2018-06-16T01:00:33.121Z,0
2018-06-16T01:01:34.507Z,0
2018-06-16T01:02:35.908Z,0
2018-06-16T01:03:37.285Z,0
2018-06-16T01:04:38.673Z,0
2018-06-16T01:05:40.624Z,0
2018-06-16T01:06:42.011Z,0
2018-06-16T01:07:43.403Z,0
2018-06-16T01:08:44.786Z,0
2018-06-16T01:09:46.174Z,0
2018-06-16T01:10:47.557Z,0
2018-06-16T01:11:48.948Z,0
2018-06-16T01:12:50.334Z,0
2018-06-16T01:13:51.710Z,0
2018-06-16T01:14:53.097Z,0
2018-06-16T01:15:54.488Z,0
2018-06-16T01:16:55.876Z,0
2018-06-16T01:17:57.254Z,0
2018-06-16T01:18:58.644Z,0
2018-06-16T01:20:00.040Z,0
2018-06-16T01:21:01.417Z,0
2018-06-16T01:22:02.811Z,0
2018-06-16T01:23:04.189Z,0
2018-06-16T01:24:05.582Z,0
2018-06-16T01:25:06.967Z,0
2018-06-16T01:26:08.355Z,0
2018-06-16T01:27:09.749Z,0
2018-06-16T01:28:11.131Z,0
2018-06-16T01:29:12.513Z,0
2018-06-16T01:30:13.909Z,0
2018-06-16T01:31:15.285Z,0
2018-06-16T01:32:16.668Z,0
2018-06-16T01:33:18.055Z,0
2018-06-16T01:34:19.451Z,0
2018-06-16T01:35:20.830Z,0
2018-06-16T01:36:22.218Z,0
2018-06-16T01:37:23.607Z,0
2018-06-16T01:38:24.991Z,0
2018-06-16T01:39:26.374Z,0
2018-06-16T01:40:27.764Z,0
2018-06-16T01:41:29.151Z,0
2018-06-16T01:42:30.539Z,0
2018-06-16T01:43:31.927Z,0
2018-06-16T01:44:34.024Z,0
2018-06-16T01:45:35.407Z,0
2018-06-16T01:46:36.792Z,0
2018-06-16T01:47:38.181Z,0
2018-06-16T01:48:39.565Z,0
2018-06-16T01:49:40.937Z,0
2018-06-16T01:50:42.327Z,0
2018-06-16T01:51:43.712Z,0
2018-06-16T01:52:45.100Z,0
2018-06-16T01:53:46.487Z,0
2018-06-16T01:54:47.874Z,0
2018-06-16T01:55:49.257Z,0
2018-06-16T01:56:50.646Z,0
2018-06-16T01:57:52.038Z,0
2018-06-16T01:58:53.426Z,0
2018-06-16T01:59:54.807Z,0
2018-06-16T02:00:56.190Z,0
2018-06-16T02:01:57.582Z,0
2018-06-16T02:02:58.971Z,0
2018-06-16T02:04:00.353Z,0
2018-06-16T02:05:01.744Z,0
2018-06-16T02:06:03.127Z,0
2018-06-16T02:07:04.510Z,0
2018-06-16T02:08:05.904Z,0
2018-06-16T02:09:07.294Z,0
2018-06-16T02:10:08.682Z,4
2018-06-16T02:11:10.073Z,4
2018-06-16T02:12:11.463Z,0
2018-06-16T02:13:12.843Z,0
2018-06-16T02:14:14.235Z,4
2018-06-16T02:15:15.625Z,4
2018-06-16T02:16:17.006Z,0
2018-06-16T02:17:18.386Z,4
2018-06-16T02:18:19.775Z,4
2018-06-16T02:19:21.167Z,4
2018-06-16T02:20:22.541Z,8
2018-06-16T02:21:23.930Z,4
2018-06-16T02:22:25.314Z,8
2018-06-16T02:23:26.698Z,8
2018-06-16T02:24:28.084Z,8
2018-06-16T02:25:29.472Z,12
2018-06-16T02:26:30.854Z,8
2018-06-16T02:27:32.240Z,12
2018-06-16T02:28:33.628Z,12
2018-06-16T02:29:35.016Z,12
2018-06-16T02:30:36.400Z,12
2018-06-16T02:31:37.783Z,16
2018-06-16T02:32:39.172Z,16
2018-06-16T02:33:40.553Z,16
2018-06-16T02:34:41.943Z,20
2018-06-16T02:35:43.333Z,20
2018-06-16T02:36:44.725Z,24
2018-06-16T02:37:46.115Z,28
2018-06-16T02:38:47.496Z,28
2018-06-16T02:39:48.888Z,32
2018-06-16T02:40:50.265Z,32
2018-06-16T02:41:51.657Z,36
2018-06-16T02:42:53.048Z,40
2018-06-16T02:43:54.429Z,48
2018-06-16T02:44:55.814Z,48
2018-06-16T02:45:57.201Z,56
2018-06-16T02:46:58.589Z,56
2018-06-16T02:47:59.977Z,60
2018-06-16T02:49:01.361Z,64
2018-06-16T02:50:02.805Z,68
2018-06-16T02:51:04.152Z,72
2018-06-16T02:52:05.543Z,76
2018-06-16T02:53:06.943Z,80
2018-06-16T02:54:08.308Z,88
2018-06-16T02:55:09.694Z,96
2018-06-16T02:56:11.074Z,104
2018-06-16T02:57:12.464Z,112
2018-06-16T02:58:13.846Z,116
2018-06-16T02:59:15.235Z,124
2018-06-16T03:00:16.621Z,132
2018-06-16T03:01:18.007Z,136
2018-06-16T03:02:19.400Z,148
2018-06-16T03:03:20.841Z,156
2018-06-16T03:04:22.178Z,160
2018-06-16T03:05:23.564Z,172
2018-06-16T03:06:25.360Z,184
2018-06-16T03:07:26.741Z,192
2018-06-16T03:08:28.131Z,208
2018-06-16T03:09:29.519Z,224
2018-06-16T03:10:30.907Z,236
2018-06-16T03:11:32.299Z,248
2018-06-16T03:12:33.685Z,264
2018-06-16T03:13:35.075Z,272
2018-06-16T03:14:36.464Z,288
2018-06-16T03:15:38.812Z,308
2018-06-16T03:16:40.212Z,320
2018-06-16T03:17:41.599Z,336
2018-06-16T03:18:42.991Z,356
2018-06-16T03:19:44.367Z,376
2018-06-16T03:20:45.764Z,388
2018-06-16T03:21:47.143Z,404
2018-06-16T03:22:48.533Z,416
2018-06-16T03:23:49.919Z,424
2018-06-16T03:24:51.314Z,436
2018-06-16T03:25:52.698Z,456
2018-06-16T03:26:54.088Z,488
2018-06-16T03:27:55.478Z,516
2018-06-16T03:28:56.860Z,540
2018-06-16T03:29:58.252Z,552
2018-06-16T03:30:59.643Z,564
2018-06-16T03:32:01.038Z,572
2018-06-16T03:33:02.437Z,588
2018-06-16T03:34:04.743Z,628
2018-06-16T03:35:06.135Z,664
2018-06-16T03:36:08.082Z,692
2018-06-16T03:37:09.462Z,728
2018-06-16T03:38:10.855Z,760
2018-06-16T03:39:12.249Z,784
2018-06-16T03:40:13.636Z,816
2018-06-16T03:41:15.032Z,832
2018-06-16T03:42:16.424Z,844
2018-06-16T03:43:17.816Z,864
2018-06-16T03:44:19.205Z,872
2018-06-16T03:45:20.590Z,876
2018-06-16T03:46:21.985Z,880
2018-06-16T03:47:23.369Z,864
2018-06-16T03:48:24.764Z,856
2018-06-16T03:49:26.153Z,848
2018-06-16T03:50:27.537Z,852
2018-06-16T03:51:28.927Z,876
2018-06-16T03:52:30.320Z,920
2018-06-16T03:53:31.708Z,972
2018-06-16T03:54:33.096Z,984
2018-06-16T03:55:34.478Z,956
2018-06-16T03:56:35.878Z,972
2018-06-16T03:57:37.260Z,1016
2018-06-16T03:58:38.660Z,1064
2018-06-16T03:59:40.059Z,1104
2018-06-16T04:00:41.450Z,1156
2018-06-16T04:01:42.846Z,1140
2018-06-16T04:02:44.239Z,1148
2018-06-16T04:03:45.626Z,1164
2018-06-16T04:04:47.018Z,1200
2018-06-16T04:05:48.413Z,1324
2018-06-16T04:06:49.801Z,1420
2018-06-16T04:07:51.189Z,1440
2018-06-16T04:08:52.578Z,1464
2018-06-16T04:09:53.965Z,1484
2018-06-16T04:10:55.348Z,1444
2018-06-16T04:11:56.743Z,1544
2018-06-16T04:12:58.133Z,1604
2018-06-16T04:13:59.527Z,1712
2018-06-16T04:15:00.920Z,1816
2018-06-16T04:16:02.308Z,1848
2018-06-16T04:17:03.700Z,1944
2018-06-16T04:18:06.007Z,2060
2018-06-16T04:19:07.392Z,2148
2018-06-16T04:20:08.789Z,2344
2018-06-16T04:21:10.181Z,2404
2018-06-16T04:22:11.577Z,2452
2018-06-16T04:23:12.968Z,2404
2018-06-16T04:24:14.363Z,2128
2018-06-16T04:25:15.765Z,2044
2018-06-16T04:26:17.151Z,2016
2018-06-16T04:27:18.550Z,2044
2018-06-16T04:28:19.934Z,2144
2018-06-16T04:29:21.335Z,2060
2018-06-16T04:30:22.706Z,2128
2018-06-16T04:31:24.105Z,2216
2018-06-16T04:32:25.484Z,2304
2018-06-16T04:33:26.879Z,2724
2018-06-16T04:34:28.263Z,2436
2018-06-16T04:35:29.666Z,2492
2018-06-16T04:36:31.662Z,2512
2018-06-16T04:37:33.044Z,2492
2018-06-16T04:38:34.443Z,2480
2018-06-16T04:39:35.830Z,2504
2018-06-16T04:40:37.212Z,2632
2018-06-16T04:41:38.614Z,2476
2018-06-16T04:42:40.006Z,2548
2018-06-16T04:43:41.397Z,2596
2018-06-16T04:44:42.786Z,3188
2018-06-16T04:45:44.241Z,3504
2018-06-16T04:46:45.522Z,2972
2018-06-16T04:47:46.920Z,4724
2018-06-16T04:48:48.319Z,5436
2018-06-16T04:49:49.715Z,5444
2018-06-16T04:50:51.107Z,4220
2018-06-16T04:51:52.498Z,4668
2018-06-16T04:52:53.892Z,3012
2018-06-16T04:53:55.278Z,3116
2018-06-16T04:54:56.672Z,3176
2018-06-16T04:55:58.072Z,4164
2018-06-16T04:56:59.537Z,4348
2018-06-16T04:58:00.850Z,3752
2018-06-16T04:59:02.241Z,3288
2018-06-16T05:00:03.630Z,3020
2018-06-16T05:01:05.022Z,3004
2018-06-16T05:02:06.413Z,3076
2018-06-16T05:03:07.816Z,3480
2018-06-16T05:04:09.235Z,3640
2018-06-16T05:05:10.619Z,3112
2018-06-16T05:06:12.009Z,3072
2018-06-16T05:07:14.104Z,3116
2018-06-16T05:08:15.495Z,3204
2018-06-16T05:09:16.891Z,3388
2018-06-16T05:10:18.292Z,3480
2018-06-16T05:11:19.673Z,3664
2018-06-16T05:12:21.061Z,5140
2018-06-16T05:13:22.462Z,3856
2018-06-16T05:14:24.578Z,3888
2018-06-16T05:15:25.970Z,4500
2018-06-16T05:16:27.370Z,8100
2018-06-16T05:17:28.759Z,8880
2018-06-16T05:18:30.150Z,9208
2018-06-16T05:19:31.530Z,8632
2018-06-16T05:20:32.932Z,8128
2018-06-16T05:21:34.320Z,7584
2018-06-16T05:22:35.706Z,6968
2018-06-16T05:23:37.108Z,6820
2018-06-16T05:24:38.515Z,6772
2018-06-16T05:25:39.964Z,6276
2018-06-16T05:26:41.324Z,6056
2018-06-16T05:27:42.721Z,5820
2018-06-16T05:28:44.129Z,5596
2018-06-16T05:29:45.512Z,5388
2018-06-16T05:30:46.908Z,5188
2018-06-16T05:31:48.301Z,5176
2018-06-16T05:32:49.707Z,5188
2018-06-16T05:33:51.108Z,5120
2018-06-16T05:34:53.146Z,5212
2018-06-16T05:35:54.538Z,5672
2018-06-16T05:36:55.931Z,5572
2018-06-16T05:37:57.333Z,6440
2018-06-16T05:38:58.739Z,6828
2018-06-16T05:40:00.134Z,7172
2018-06-16T05:41:01.528Z,9760
2018-06-16T05:42:02.918Z,14336
2018-06-16T05:43:04.316Z,18240
2018-06-16T05:44:05.715Z,13664
2018-06-16T05:45:07.111Z,10900
2018-06-16T05:46:08.509Z,12956
2018-06-16T05:47:09.902Z,14464
2018-06-16T05:48:12.019Z,17504
2018-06-16T05:49:13.415Z,20672
2018-06-16T05:50:14.804Z,21888
2018-06-16T05:51:16.207Z,22432
2018-06-16T05:52:17.606Z,22112
2018-06-16T05:53:19.022Z,23296
2018-06-16T05:54:20.414Z,22176
2018-06-16T05:55:21.816Z,21792
2018-06-16T05:56:23.219Z,22720
2018-06-16T05:57:24.613Z,22208
2018-06-16T05:58:26.020Z,22496
2018-06-16T05:59:27.418Z,23808
2018-06-16T06:00:28.825Z,23008
2018-06-16T06:01:30.229Z,24640
2018-06-16T06:02:31.635Z,26656
2018-06-16T06:03:33.050Z,23648
2018-06-16T06:04:34.459Z,24256
2018-06-16T06:05:35.859Z,27584
2018-06-16T06:06:37.271Z,28672
2018-06-16T06:07:38.669Z,27200
2018-06-16T06:08:40.078Z,26784
2018-06-16T06:09:42.319Z,29248
2018-06-16T06:10:43.715Z,31296
2018-06-16T06:11:45.127Z,32288
2018-06-16T06:12:46.530Z,30240
2018-06-16T06:13:47.948Z,30048
2018-06-16T06:14:49.338Z,29184
2018-06-16T06:15:50.806Z,27872
2018-06-16T06:16:52.144Z,30176
2018-06-16T06:17:53.554Z,29088
2018-06-16T06:18:54.948Z,30432
2018-06-16T06:19:56.378Z,32384
2018-06-16T06:20:57.781Z,34592
2018-06-16T06:21:59.188Z,33376
2018-06-16T06:23:00.591Z,33408
2018-06-16T06:24:02.005Z,34304
2018-06-16T06:25:03.421Z,33440
2018-06-16T06:26:04.819Z,32320
2018-06-16T06:27:06.221Z,34592
2018-06-16T06:28:07.637Z,36544
2018-06-16T06:29:09.044Z,35712
2018-06-16T06:30:10.465Z,34912
2018-06-16T06:31:11.877Z,35584
2018-06-16T06:32:13.285Z,39136
2018-06-16T06:33:14.709Z,29120
2018-06-16T06:34:16.103Z,14048
2018-06-16T06:35:17.523Z,11956
2018-06-16T06:36:18.936Z,13632
2018-06-16T06:37:20.351Z,13048
2018-06-16T06:38:21.762Z,12296
2018-06-16T06:39:23.159Z,12300
2018-06-16T06:40:24.568Z,12800
2018-06-16T06:41:25.978Z,12664
2018-06-16T06:42:27.392Z,12712
2018-06-16T06:43:28.860Z,13144
2018-06-16T06:44:30.218Z,13100
2018-06-16T06:45:31.626Z,12904
2018-06-16T06:46:33.033Z,12788
2018-06-16T06:47:35.361Z,12600
2018-06-16T06:48:36.788Z,12540
2018-06-16T06:49:38.189Z,10476
2018-06-16T06:50:39.597Z,12832
2018-06-16T06:51:40.999Z,13044
2018-06-16T06:52:42.410Z,12920
2018-06-16T06:53:43.819Z,13208
2018-06-16T06:54:45.225Z,13888
2018-06-16T06:55:46.637Z,13824
2018-06-16T06:56:48.055Z,13632
2018-06-16T06:57:49.468Z,13600
2018-06-16T06:58:50.869Z,12360
2018-06-16T06:59:52.277Z,12184
2018-06-16T07:00:53.692Z,12080
2018-06-16T07:01:55.106Z,12764
2018-06-16T07:02:56.514Z,13696
2018-06-16T07:03:57.963Z,13696
2018-06-16T07:05:00.132Z,13468
2018-06-16T07:06:01.544Z,14016
2018-06-16T07:07:02.946Z,13856
2018-06-16T07:08:04.925Z,14080
2018-06-16T07:09:06.334Z,14112
2018-06-16T07:10:07.740Z,13728
2018-06-16T07:11:09.148Z,13568
2018-06-16T07:12:10.550Z,13504
2018-06-16T07:13:11.964Z,13536
2018-06-16T07:14:13.367Z,5440
2018-06-16T07:15:14.775Z,4808
2018-06-16T07:16:16.182Z,6480
2018-06-16T07:17:17.594Z,3288
2018-06-16T07:18:19.015Z,3576
2018-06-16T07:19:20.421Z,3776
2018-06-16T07:20:21.811Z,3680
2018-06-16T07:21:23.220Z,3680
2018-06-16T07:22:24.621Z,3424
2018-06-16T07:23:26.019Z,2800
2018-06-16T07:24:27.421Z,3836
2018-06-16T07:25:28.845Z,3936
2018-06-16T07:26:30.224Z,3832
2018-06-16T07:27:31.638Z,3880
2018-06-16T07:28:33.032Z,3816
2018-06-16T07:29:34.445Z,3872
2018-06-16T07:30:35.846Z,3804
2018-06-16T07:31:37.242Z,3812
2018-06-16T07:32:38.643Z,4164
2018-06-16T07:33:40.053Z,4192
2018-06-16T07:34:41.458Z,4204
2018-06-16T07:35:42.858Z,4140
2018-06-16T07:36:44.256Z,4156
2018-06-16T07:37:45.649Z,4152
2018-06-16T07:38:47.067Z,4248
2018-06-16T07:39:48.450Z,4192
2018-06-16T07:40:49.844Z,4188
2018-06-16T07:41:51.250Z,4060
2018-06-16T07:42:52.662Z,4104
2018-06-16T07:43:54.076Z,3976
2018-06-16T07:44:55.471Z,3988
2018-06-16T07:45:56.863Z,4008
2018-06-16T07:46:58.273Z,3888
2018-06-16T07:47:59.673Z,3888
2018-06-16T07:49:01.073Z,3816
2018-06-16T07:50:02.472Z,3768
2018-06-16T07:51:03.882Z,3820
2018-06-16T07:52:06.112Z,3804
2018-06-16T07:53:07.546Z,3792
2018-06-16T07:54:08.921Z,3780
2018-06-16T07:55:10.318Z,3624
2018-06-16T07:56:11.711Z,3600
2018-06-16T07:57:13.137Z,3708
2018-06-16T07:58:14.517Z,3700
2018-06-16T07:59:15.940Z,3620
2018-06-16T08:00:17.348Z,3620
2018-06-16T08:01:18.740Z,3564
2018-06-16T08:02:20.133Z,3528
2018-06-16T08:03:21.538Z,3564
2018-06-16T08:04:22.932Z,3564
2018-06-16T08:05:24.328Z,3588
2018-06-16T08:06:25.731Z,3508
2018-06-16T08:07:27.128Z,3424
2018-06-16T08:08:28.531Z,3392
2018-06-16T08:09:29.925Z,3516
2018-06-16T08:10:31.323Z,3432
2018-06-16T08:11:32.721Z,3472
2018-06-16T08:12:34.121Z,3572
2018-06-16T08:13:35.531Z,3596
2018-06-16T08:14:36.918Z,3648
2018-06-16T08:15:38.361Z,3440
2018-06-16T08:16:39.727Z,2864
2018-06-16T08:17:41.121Z,2640
2018-06-16T08:18:42.532Z,2644
2018-06-16T08:19:43.936Z,2540
2018-06-16T08:20:45.336Z,2508
2018-06-16T08:21:46.740Z,2496
2018-06-16T08:22:48.139Z,3184
2018-06-16T08:23:49.541Z,3300
2018-06-16T08:24:50.943Z,3640
2018-06-16T08:25:52.338Z,3692
2018-06-16T08:26:53.736Z,3480
2018-06-16T08:27:55.142Z,3896
2018-06-16T08:28:56.538Z,3416
2018-06-16T08:29:58.546Z,3688
2018-06-16T08:30:59.267Z,3704
2018-06-16T08:32:00.677Z,3824
2018-06-16T08:33:02.067Z,3180
2018-06-16T08:34:03.463Z,3064
2018-06-16T08:35:04.873Z,2752
2018-06-16T08:36:06.267Z,3352
2018-06-16T08:37:07.671Z,3276
2018-06-16T08:38:09.071Z,3212
2018-06-16T08:39:10.473Z,3044
2018-06-16T08:40:11.871Z,3108
2018-06-16T08:41:13.282Z,3480
2018-06-16T08:42:14.691Z,3220
2018-06-16T08:43:16.105Z,2992
2018-06-16T08:44:17.488Z,2728
2018-06-16T08:45:18.885Z,2584
2018-06-16T08:46:20.291Z,2612
2018-06-16T08:47:21.684Z,2296
2018-06-16T08:48:23.085Z,2440
2018-06-16T08:49:24.475Z,2300
2018-06-16T08:50:25.877Z,2140
2018-06-16T08:51:27.278Z,2088
2018-06-16T08:52:28.678Z,2048
2018-06-16T08:53:30.082Z,1756
2018-06-16T08:54:31.482Z,1896
2018-06-16T08:55:32.946Z,2000
2018-06-16T08:56:34.284Z,2152
2018-06-16T08:57:35.672Z,2276
2018-06-16T08:58:37.077Z,2164
2018-06-16T08:59:38.468Z,2044
2018-06-16T09:00:39.869Z,1944
2018-06-16T09:01:41.276Z,1904
2018-06-16T09:02:42.666Z,1840
2018-06-16T09:03:44.065Z,1844
2018-06-16T09:04:45.467Z,1796
2018-06-16T09:05:46.852Z,1704
2018-06-16T09:06:48.254Z,1676
2018-06-16T09:07:49.649Z,1744
2018-06-16T09:08:51.050Z,1680
2018-06-16T09:09:52.449Z,1616
2018-06-16T09:10:53.853Z,1608
2018-06-16T09:11:55.240Z,1680
2018-06-16T09:12:56.645Z,1792
2018-06-16T09:13:58.051Z,1904
2018-06-16T09:14:59.443Z,1912
2018-06-16T09:16:00.841Z,1916
2018-06-16T09:17:02.259Z,1944
2018-06-16T09:18:03.668Z,1940
2018-06-16T09:19:05.065Z,2044
2018-06-16T09:20:06.458Z,2164
2018-06-16T09:21:07.864Z,2276
2018-06-16T09:22:09.263Z,2416
2018-06-16T09:23:10.644Z,2560
2018-06-16T09:24:12.055Z,2700
2018-06-16T09:25:13.443Z,2768
2018-06-16T09:26:14.833Z,2688
2018-06-16T09:27:16.228Z,2584
2018-06-16T09:28:17.624Z,2488
2018-06-16T09:29:19.028Z,2436
2018-06-16T09:30:20.430Z,2564
2018-06-16T09:31:21.830Z,2748
2018-06-16T09:32:23.229Z,2848
2018-06-16T09:33:24.630Z,2880
2018-06-16T09:34:26.030Z,2932
2018-06-16T09:35:27.419Z,3096
2018-06-16T09:36:28.821Z,3480
2018-06-16T09:37:30.223Z,3560
2018-06-16T09:38:31.623Z,3776
2018-06-16T09:39:33.030Z,3832
2018-06-16T09:40:34.417Z,3808
2018-06-16T09:41:35.818Z,3844
2018-06-16T09:42:37.220Z,3832
2018-06-16T09:43:38.621Z,3852
2018-06-16T09:44:40.015Z,3872
2018-06-16T09:45:41.419Z,3816
2018-06-16T09:46:42.827Z,3780
2018-06-16T09:47:44.248Z,3804
2018-06-16T09:48:45.661Z,3940
2018-06-16T09:49:47.059Z,3996
2018-06-16T09:50:48.461Z,4244
2018-06-16T09:51:49.855Z,4348
2018-06-16T09:52:51.260Z,4472
2018-06-16T09:53:52.655Z,4772
2018-06-16T09:54:54.051Z,3904
2018-06-16T09:55:55.456Z,3936
2018-06-16T09:56:56.852Z,3996
2018-06-16T09:57:58.253Z,4204
2018-06-16T09:58:59.644Z,4288
2018-06-16T10:00:01.051Z,4200
2018-06-16T10:01:02.450Z,4252
2018-06-16T10:02:03.806Z,4312
2018-06-16T10:03:05.210Z,4236
2018-06-16T10:04:06.605Z,4272
2018-06-16T10:05:08.010Z,4128
2018-06-16T10:06:09.415Z,3556
2018-06-16T10:07:10.796Z,3540
2018-06-16T10:08:12.197Z,3704
2018-06-16T10:09:13.597Z,3948
2018-06-16T10:10:14.993Z,3928
2018-06-16T10:11:16.400Z,3800
2018-06-16T10:12:17.809Z,3804
2018-06-16T10:13:19.209Z,3868
2018-06-16T10:14:20.613Z,4016
2018-06-16T10:15:22.012Z,4060
2018-06-16T10:16:23.410Z,3876
2018-06-16T10:17:24.808Z,3928
2018-06-16T10:18:26.209Z,3940
2018-06-16T10:19:27.608Z,3996
2018-06-16T10:20:29.726Z,4024
2018-06-16T10:21:31.132Z,3900
2018-06-16T10:22:32.524Z,3820
2018-06-16T10:23:33.948Z,3684
2018-06-16T10:24:35.328Z,3516
2018-06-16T10:25:36.732Z,3320
2018-06-16T10:26:38.136Z,3012
2018-06-16T10:27:39.543Z,3056
2018-06-16T10:28:40.940Z,3236
2018-06-16T10:29:42.334Z,3308
2018-06-16T10:30:43.730Z,3240
2018-06-16T10:31:45.132Z,2972
2018-06-16T10:32:46.523Z,2780
2018-06-16T10:33:47.936Z,2660
2018-06-16T10:34:49.340Z,2628
2018-06-16T10:35:50.733Z,2584
2018-06-16T10:36:52.129Z,2724
2018-06-16T10:37:53.535Z,2884
2018-06-16T10:38:54.929Z,2964
2018-06-16T10:39:56.347Z,3016
2018-06-16T10:40:57.753Z,3148
2018-06-16T10:41:59.146Z,3252
2018-06-16T10:43:00.545Z,3296
2018-06-16T10:44:01.965Z,3336
2018-06-16T10:45:03.374Z,3364
2018-06-16T10:46:04.759Z,3368
2018-06-16T10:47:06.160Z,3472
2018-06-16T10:48:07.692Z,3688
2018-06-16T10:49:09.090Z,3892
2018-06-16T10:50:10.482Z,4040
2018-06-16T10:51:11.905Z,4180
2018-06-16T10:52:13.292Z,4176
2018-06-16T10:53:14.692Z,4084
2018-06-16T10:54:16.098Z,4124
2018-06-16T10:55:17.496Z,4152
2018-06-16T10:56:18.906Z,4148
2018-06-16T10:57:20.302Z,4168
2018-06-16T10:58:21.702Z,4260
2018-06-16T10:59:23.104Z,4416
2018-06-16T11:00:24.515Z,4596
2018-06-16T11:01:25.898Z,4628
2018-06-16T11:02:27.290Z,4756
2018-06-16T11:03:28.699Z,4584
2018-06-16T11:04:30.089Z,4456
2018-06-16T11:05:31.498Z,4604
2018-06-16T11:06:32.889Z,4712
2018-06-16T11:07:34.294Z,5056
2018-06-16T11:08:35.690Z,5204
2018-06-16T11:09:37.100Z,5652
2018-06-16T11:10:38.496Z,5896
2018-06-16T11:11:39.896Z,5800
2018-06-16T11:12:41.293Z,5732
2018-06-16T11:13:42.688Z,5480
2018-06-16T11:14:44.083Z,5464
2018-06-16T11:15:45.484Z,5428
2018-06-16T11:16:46.876Z,5700
2018-06-16T11:17:48.286Z,5868
2018-06-16T11:18:49.686Z,5992
2018-06-16T11:19:51.080Z,6380
2018-06-16T11:20:52.468Z,6680
2018-06-16T11:21:53.872Z,7088
2018-06-16T11:22:55.271Z,6416
2018-06-16T11:23:56.672Z,6420
2018-06-16T11:24:58.061Z,6968
2018-06-16T11:25:59.484Z,5424
2018-06-16T11:27:00.879Z,3752
2018-06-16T11:28:02.271Z,4232
2018-06-16T11:29:03.669Z,4224
2018-06-16T11:30:05.067Z,4452
2018-06-16T11:31:06.475Z,3856
2018-06-16T11:32:07.882Z,1884
2018-06-16T11:33:09.278Z,1576
2018-06-16T11:34:10.679Z,1808
2018-06-16T11:35:12.823Z,1996
2018-06-16T11:36:16.476Z,2796
2018-06-16T11:37:18.692Z,2668
2018-06-16T11:38:22.513Z,3472
2018-06-16T11:39:23.919Z,6220
2018-06-16T11:40:25.323Z,9824
2018-06-16T11:41:26.724Z,9536
2018-06-16T11:42:28.125Z,10504
2018-06-16T11:43:29.522Z,10696
2018-06-16T11:44:31.094Z,17312
2018-06-16T11:45:32.484Z,33440
2018-06-16T11:46:33.920Z,45952
2018-06-16T11:47:36.544Z,59392
2018-06-16T11:48:38.188Z,60288
2018-06-16T11:49:39.559Z,60032
2018-06-16T11:50:40.964Z,60000
2018-06-16T11:51:42.768Z,56544
2018-06-16T11:52:44.163Z,55296
2018-06-16T11:53:45.557Z,53952
2018-06-16T11:54:46.964Z,57568
2018-06-16T11:55:48.362Z,60160
2018-06-16T11:56:50.948Z,60032
2018-06-16T11:57:53.271Z,63648
2018-06-16T11:58:55.274Z,60704
2018-06-16T11:59:57.921Z,54048
2018-06-16T12:00:59.792Z,45568
2018-06-16T12:02:02.291Z,43104
2018-06-16T12:03:04.317Z,43712
2018-06-16T12:04:06.252Z,44000
2018-06-16T12:05:07.651Z,45600
2018-06-16T12:06:09.139Z,50720
2018-06-16T12:07:10.549Z,56448
2018-06-16T12:08:13.536Z,49984
2018-06-16T12:09:14.931Z,60448
2018-06-16T12:10:16.340Z,61472
2018-06-16T12:11:17.921Z,76000
2018-06-16T12:12:20.440Z,54848
2018-06-16T12:13:22.929Z,46144
2018-06-16T12:14:24.336Z,47616
2018-06-16T12:15:25.734Z,53696
2018-06-16T12:16:27.911Z,55456
2018-06-16T12:17:29.302Z,48320
2018-06-16T12:18:30.714Z,33792
2018-06-16T12:19:33.400Z,25440
2018-06-16T12:20:34.800Z,21056
2018-06-16T12:21:38.636Z,36576
2018-06-16T12:22:40.037Z,40224
2018-06-16T12:23:41.440Z,47392
2018-06-16T12:24:42.866Z,51104
2018-06-16T12:25:44.268Z,46880
2018-06-16T12:26:45.671Z,48320
2018-06-16T12:27:47.067Z,43776
2018-06-16T12:28:48.466Z,35808
2018-06-16T12:29:49.930Z,49856
2018-06-16T12:30:51.232Z,52352
2018-06-16T12:31:52.636Z,40928
2018-06-16T12:32:54.060Z,45056
2018-06-16T12:33:55.471Z,41728
2018-06-16T12:34:56.866Z,53888
2018-06-16T12:35:58.265Z,50048
2018-06-16T12:36:59.667Z,47264
2018-06-16T12:38:01.064Z,25152
2018-06-16T12:39:02.452Z,25088
2018-06-16T12:40:03.856Z,9084
2018-06-16T12:41:05.255Z,6412
2018-06-16T12:42:06.657Z,5980
2018-06-16T12:43:08.056Z,6336
2018-06-16T12:44:09.470Z,6020
2018-06-16T12:45:10.852Z,5724
2018-06-16T12:46:12.253Z,5468
2018-06-16T12:47:13.646Z,5036
2018-06-16T12:48:15.044Z,5624
2018-06-16T12:49:16.440Z,4928
2018-06-16T12:50:17.836Z,4836
2018-06-16T12:51:20.135Z,4480
2018-06-16T12:52:21.534Z,5220
2018-06-16T12:53:22.950Z,5568
2018-06-16T12:54:24.346Z,5696
2018-06-16T12:55:25.753Z,8800
2018-06-16T12:56:27.175Z,26432
2018-06-16T12:57:28.614Z,40576
2018-06-16T12:58:29.962Z,20768
2018-06-16T12:59:31.361Z,7100
2018-06-16T13:00:32.758Z,5496
2018-06-16T13:01:34.166Z,4492
2018-06-16T13:02:35.560Z,4296
2018-06-16T13:03:36.970Z,4420
2018-06-16T13:04:38.362Z,4572
2018-06-16T13:05:39.769Z,4356
2018-06-16T13:06:41.175Z,4296
2018-06-16T13:07:42.573Z,3756
2018-06-16T13:08:43.975Z,3808
2018-06-16T13:09:46.063Z,3748
2018-06-16T13:10:47.456Z,3492
2018-06-16T13:11:48.866Z,3560
2018-06-16T13:12:50.263Z,3416
2018-06-16T13:13:51.669Z,3596
2018-06-16T13:14:53.064Z,3888
2018-06-16T13:15:55.077Z,3636
2018-06-16T13:16:56.478Z,3536
2018-06-16T13:17:57.878Z,3360
2018-06-16T13:18:59.287Z,3228
2018-06-16T13:20:00.680Z,3760
2018-06-16T13:21:02.082Z,3704
2018-06-16T13:22:03.479Z,3692
2018-06-16T13:23:04.877Z,4024
2018-06-16T13:24:06.278Z,4260
2018-06-16T13:25:07.671Z,4096
2018-06-16T13:26:09.074Z,3792
2018-06-16T13:27:10.467Z,3632
2018-06-16T13:28:11.867Z,3904
2018-06-16T13:29:13.335Z,3964
2018-06-16T13:30:14.669Z,3876
2018-06-16T13:31:16.065Z,3672
2018-06-16T13:32:17.467Z,3480
2018-06-16T13:33:18.859Z,3664
2018-06-16T13:34:20.271Z,3428
2018-06-16T13:35:21.663Z,3424
2018-06-16T13:36:23.093Z,3564
2018-06-16T13:37:24.475Z,3712
2018-06-16T13:38:26.816Z,3620
2018-06-16T13:39:28.210Z,3404
2018-06-16T13:40:29.600Z,3140
2018-06-16T13:41:31.005Z,3072
2018-06-16T13:42:32.408Z,2864
2018-06-16T13:43:33.799Z,2692
2018-06-16T13:44:35.197Z,2548
2018-06-16T13:45:36.596Z,2624
2018-06-16T13:46:37.998Z,2760
2018-06-16T13:47:39.395Z,2796
2018-06-16T13:48:40.778Z,2944
2018-06-16T13:49:42.182Z,3112
2018-06-16T13:50:43.580Z,3368